Mae De Jesus — CULK8 — position and weather

sailwx.info

Track history (hours):
 
Tides and Currents Weather Stations Pressure Air Temp Water Temp Dewpoint Dewpoint Depression Visibility Wind Speed Wind Dir Waves Ship Positions

Mae De Jesus

Last reported at 2018-Jul-20 12:38 UTC. Time now 2018-Jul-22 21:46 UTC.
Position N 38°31' W 008°54'.

Length 15 m.

Type: Fishing. MMSI: 263410850.

Date/timePositionNaut miles runAvg speedWind from/ knotsBaromVisibWave heightAir tempDewpointWater temp
2018-Jul-20 12:38N 38°31' W 008°54'1 7.7
2018-Jul-20 12:29N 38°30' W 008°55'3 6.9
2018-Jul-20 11:59N 38°27' W 008°58'4 8.1
2018-Jul-20 11:30N 38°26' W 009°03'3 1.7
2018-Jul-20 09:47N 38°26' W 009°07'5 0.3
2018-Jul-19 17:40N 38°25' W 009°13'3 7.2
2018-Jul-19 17:13N 38°25' W 009°09'2 7.6
2018-Jul-19 16:59N 38°25' W 009°07'4 7.5
2018-Jul-19 16:30N 38°26' W 009°03'8 0.4
2018-Jul-18 21:46N 38°31' W 008°55'2 7.0
2018-Jul-18 21:30N 38°29' W 008°56'3 6.9
2018-Jul-18 21:00N 38°27' W 008°59'4 8.4
2018-Jul-18 20:30N 38°26' W 009°05'2 0.1
2018-Jul-18 02:51N 38°26' W 009°07'0 0.0
2018-Jul-17 17:26N 38°26' W 009°07'0 0.0
2018-Jul-17 08:54N 38°26' W 009°07'2 3.9
2018-Jul-17 08:27N 38°25' W 009°09'3 7.5
2018-Jul-17 08:00N 38°25' W 009°13'5 1.0
2018-Jul-17 02:46N 38°26' W 009°07'0 0.0
2018-Jul-16 22:39N 38°26' W 009°07'0 0.0
2018-Jul-16 22:29N 38°26' W 009°07'0 0.0
2018-Jul-16 21:59N 38°26' W 009°07'5 7.0
2018-Jul-16 21:18N 38°24' W 009°12'5 1.3
2018-Jul-16 17:36N 38°26' W 009°07'8 0.9
2018-Jul-16 08:09N 38°29' W 009°17'  
2018-Jul-13 11:36N 38°31' W 008°54'111.2
2018-Jul-13 11:30N 38°30' W 008°55'10 0.7
2018-Jul-12 22:08N 38°26' W 009°07'0 0.2
2018-Jul-12 21:59N 38°26' W 009°07'2 5.2
2018-Jul-12 21:30N 38°25' W 009°09'2 0.2
2018-Jul-12 09:10N 38°26' W 009°07'2 9.2
2018-Jul-12 09:00N 38°25' W 009°08'12 0.5
2018-Jul-11 06:34N 38°31' W 008°54'2 8.1
2018-Jul-11 06:21N 38°29' W 008°56'9 0.7
2018-Jul-10 17:15N 38°26' W 009°07'  
Track history (hours):
 
Tides and Currents Weather Stations Pressure Air Temp Water Temp Dewpoint Dewpoint Depression Visibility Wind Speed Wind Dir Waves Ship Positions

Mae De Jesus

Last reported at 2018-Jul-20 12:38 UTC. Time now 2018-Jul-22 21:46 UTC.
Position N 38°31' W 008°54'.

Length 15 m.

Type: Fishing. MMSI: 263410850.

Date/timePositionNaut miles runAvg speedWind from/ knotsBaromVisibWave heightAir tempDewpointWater temp
2018-Jul-20 12:38N 38°31' W 008°54'1 7.7
2018-Jul-20 12:29N 38°30' W 008°55'3 6.9
2018-Jul-20 11:59N 38°27' W 008°58'4 8.1
2018-Jul-20 11:30N 38°26' W 009°03'3 1.7
2018-Jul-20 09:47N 38°26' W 009°07'5 0.3
2018-Jul-19 17:40N 38°25' W 009°13'3 7.2
2018-Jul-19 17:13N 38°25' W 009°09'2 7.6
2018-Jul-19 16:59N 38°25' W 009°07'4 7.5
2018-Jul-19 16:30N 38°26' W 009°03'8 0.4
2018-Jul-18 21:46N 38°31' W 008°55'2 7.0
2018-Jul-18 21:30N 38°29' W 008°56'3 6.9
2018-Jul-18 21:00N 38°27' W 008°59'4 8.4
2018-Jul-18 20:30N 38°26' W 009°05'2 0.1
2018-Jul-18 02:51N 38°26' W 009°07'0 0.0
2018-Jul-17 17:26N 38°26' W 009°07'0 0.0
2018-Jul-17 08:54N 38°26' W 009°07'2 3.9
2018-Jul-17 08:27N 38°25' W 009°09'3 7.5
2018-Jul-17 08:00N 38°25' W 009°13'5 1.0
2018-Jul-17 02:46N 38°26' W 009°07'0 0.0
2018-Jul-16 22:39N 38°26' W 009°07'0 0.0
2018-Jul-16 22:29N 38°26' W 009°07'0 0.0
2018-Jul-16 21:59N 38°26' W 009°07'5 7.0
2018-Jul-16 21:18N 38°24' W 009°12'5 1.3
2018-Jul-16 17:36N 38°26' W 009°07'8 0.9
2018-Jul-16 08:09N 38°29' W 009°17'  
2018-Jul-13 11:36N 38°31' W 008°54'111.2
2018-Jul-13 11:30N 38°30' W 008°55'10 0.7
2018-Jul-12 22:08N 38°26' W 009°07'0 0.2
2018-Jul-12 21:59N 38°26' W 009°07'2 5.2
2018-Jul-12 21:30N 38°25' W 009°09'2 0.2
2018-Jul-12 09:10N 38°26' W 009°07'2 9.2
2018-Jul-12 09:00N 38°25' W 009°08'12 0.5
2018-Jul-11 06:34N 38°31' W 008°54'2 8.1
2018-Jul-11 06:21N 38°29' W 008°56'9 0.7
2018-Jul-10 17:15N 38°26' W 009°07'  

Dump ship's entire track history